createdAt,value
2022-09-16T00:00:45.974Z,1.40
2022-09-16T00:03:13.402Z,1.30
2022-09-16T00:05:52.160Z,1.20
2022-09-16T00:08:19.880Z,1.37
2022-09-16T00:10:46.624Z,1.50
2022-09-16T00:13:14.190Z,1.20
2022-09-16T00:15:46.853Z,1.37
2022-09-16T00:18:14.794Z,1.30
2022-09-16T00:20:49.964Z,1.10
2022-09-16T00:23:17.922Z,1.50
2022-09-16T00:25:44.642Z,1.70
2022-09-16T00:28:11.367Z,1.50
2022-09-16T00:30:38.115Z,1.37
2022-09-16T00:33:04.820Z,1.23
2022-09-16T00:35:31.516Z,1.70
2022-09-16T00:37:58.286Z,1.50
2022-09-16T00:40:25.058Z,1.20
2022-09-16T00:42:51.830Z,1.37
2022-09-16T00:45:21.602Z,1.40
2022-09-16T00:47:56.040Z,1.20
2022-09-16T00:50:56.150Z,1.40
2022-09-16T00:53:29.510Z,1.90
2022-09-16T00:55:58.665Z,1.30
2022-09-16T00:58:48.811Z,1.60
2022-09-16T01:01:15.634Z,1.50
2022-09-16T01:03:47.057Z,1.60
2022-09-16T01:06:15.083Z,1.50
2022-09-16T01:08:43.563Z,1.63
2022-09-16T01:11:10.345Z,1.50
2022-09-16T01:13:38.492Z,1.50
2022-09-16T01:16:29.813Z,1.60
2022-09-16T01:19:08.127Z,1.53
2022-09-16T01:21:42.311Z,1.50
2022-09-16T01:24:27.478Z,1.87
2022-09-16T01:27:32.013Z,1.40
2022-09-16T01:30:18.828Z,1.33
2022-09-16T01:33:12.466Z,1.33
2022-09-16T01:35:55.841Z,1.33
2022-09-16T01:38:54.382Z,1.70
2022-09-16T01:41:53.244Z,1.57
2022-09-16T01:44:27.106Z,1.60
2022-09-16T01:47:03.180Z,1.70
2022-09-16T01:49:47.587Z,1.20
2022-09-16T01:52:38.262Z,1.50
2022-09-16T01:55:13.844Z,1.10
2022-09-16T01:57:51.226Z,1.40
2022-09-16T02:00:18.287Z,1.00
2022-09-16T02:03:05.260Z,1.10
2022-09-16T02:05:46.040Z,1.80
2022-09-16T02:08:17.672Z,1.17
2022-09-16T02:10:50.165Z,1.23
2022-09-16T02:13:26.852Z,1.20
2022-09-16T02:15:59.665Z,1.30
2022-09-16T02:18:33.406Z,1.20
2022-09-16T02:21:03.768Z,1.60
2022-09-16T02:23:48.300Z,1.60
2022-09-16T02:26:20.999Z,1.80
2022-09-16T02:28:51.367Z,1.33
2022-09-16T02:31:23.697Z,1.90
2022-09-16T02:33:59.127Z,1.50
2022-09-16T02:36:28.120Z,1.30
2022-09-16T02:39:08.403Z,1.47
2022-09-16T02:41:38.113Z,1.10
2022-09-16T02:44:05.615Z,1.37
2022-09-16T02:47:11.017Z,1.47
2022-09-16T02:49:57.999Z,1.77
2022-09-16T02:52:44.499Z,1.47
2022-09-16T02:55:22.202Z,1.13
2022-09-16T02:57:49.972Z,1.40
2022-09-16T03:00:17.248Z,1.63
2022-09-16T03:02:44.651Z,1.47
2022-09-16T03:05:11.434Z,1.70
2022-09-16T03:07:41.211Z,1.70
2022-09-16T03:10:13.132Z,1.40
2022-09-16T03:13:23.360Z,1.40
2022-09-16T03:16:13.061Z,1.60
2022-09-16T03:19:24.222Z,1.67
2022-09-16T03:22:17.564Z,1.53
2022-09-16T03:24:59.779Z,1.00
2022-09-16T03:27:34.235Z,1.40
2022-09-16T03:30:07.288Z,1.37
2022-09-16T03:32:44.514Z,1.47
2022-09-16T03:35:21.665Z,1.33
2022-09-16T03:37:49.820Z,1.20
2022-09-16T03:40:19.222Z,1.20
2022-09-16T03:42:46.471Z,1.50
2022-09-16T03:45:22.230Z,1.30
2022-09-16T03:47:51.243Z,1.37
2022-09-16T03:50:19.300Z,1.87
2022-09-16T03:52:46.325Z,1.67
2022-09-16T03:55:13.549Z,1.70
2022-09-16T03:57:40.459Z,1.47
2022-09-16T04:00:08.689Z,1.40
2022-09-16T04:02:41.764Z,1.53
2022-09-16T04:05:09.058Z,1.67
2022-09-16T04:07:36.597Z,1.50
2022-09-16T04:10:05.455Z,1.50
2022-09-16T04:12:32.384Z,1.83
2022-09-16T04:15:00.852Z,1.50
2022-09-16T04:17:30.988Z,1.67
2022-09-16T04:19:57.711Z,1.30
2022-09-16T04:22:24.464Z,2.00
2022-09-16T04:24:51.368Z,1.50
2022-09-16T04:27:18.132Z,1.10
2022-09-16T04:29:44.804Z,1.13
2022-09-16T04:32:11.483Z,1.20
2022-09-16T04:34:38.190Z,1.00
2022-09-16T04:37:04.993Z,1.20
2022-09-16T04:39:31.717Z,1.17
2022-09-16T04:41:59.884Z,1.10
2022-09-16T04:44:27.107Z,1.23
2022-09-16T04:46:54.076Z,1.43
2022-09-16T04:49:20.772Z,1.40
2022-09-16T04:51:47.529Z,1.10
2022-09-16T04:54:14.422Z,0.77
2022-09-16T04:56:41.092Z,1.40
2022-09-16T04:59:07.975Z,1.10
2022-09-16T05:01:37.983Z,1.40
2022-09-16T05:04:07.460Z,1.30
2022-09-16T05:06:37.296Z,1.23
2022-09-16T05:09:04.294Z,1.57
2022-09-16T05:11:36.773Z,1.20
2022-09-16T05:14:05.167Z,0.97
2022-09-16T05:16:32.875Z,1.40
2022-09-16T05:19:03.680Z,1.30
2022-09-16T05:21:32.277Z,1.37
2022-09-16T05:24:04.074Z,1.50
2022-09-16T05:26:32.560Z,1.47
2022-09-16T05:29:07.921Z,1.23
2022-09-16T05:31:38.496Z,1.50
2022-09-16T05:34:28.614Z,1.50
2022-09-16T05:36:56.309Z,1.60
2022-09-16T05:39:25.262Z,1.53
2022-09-16T05:42:00.203Z,1.47
2022-09-16T05:44:28.033Z,1.80
2022-09-16T05:46:54.927Z,1.80
2022-09-16T05:49:23.704Z,2.33
2022-09-16T05:51:51.409Z,1.57
2022-09-16T05:54:19.264Z,1.80
2022-09-16T05:56:47.354Z,1.50
2022-09-16T05:59:15.453Z,1.67
2022-09-16T06:01:42.754Z,1.50
2022-09-16T06:04:13.986Z,1.13
2022-09-16T06:06:45.945Z,1.70
2022-09-16T06:09:14.163Z,1.40
2022-09-16T06:11:43.557Z,1.67
2022-09-16T06:14:11.931Z,1.27
2022-09-16T06:16:39.260Z,1.47
2022-09-16T06:19:10.459Z,1.37
2022-09-16T06:21:38.124Z,1.50
2022-09-16T06:24:08.650Z,1.80
2022-09-16T06:26:37.333Z,1.57
2022-09-16T06:29:05.732Z,1.83
2022-09-16T06:31:33.553Z,1.40
2022-09-16T06:34:00.376Z,1.73
2022-09-16T06:36:33.508Z,1.73
2022-09-16T06:39:00.306Z,1.80
2022-09-16T06:41:27.212Z,1.70
2022-09-16T06:43:54.178Z,1.80
2022-09-16T06:46:26.986Z,1.63
2022-09-16T06:49:04.317Z,1.50
2022-09-16T06:51:32.951Z,1.87
2022-09-16T06:54:02.578Z,1.67
2022-09-16T06:56:29.372Z,1.60
2022-09-16T06:58:57.327Z,1.50
2022-09-16T07:01:29.588Z,2.13
2022-09-16T07:03:58.320Z,1.93
2022-09-16T07:06:57.390Z,2.50
2022-09-16T07:09:16.279Z,1.90
2022-09-16T07:11:42.997Z,2.27
2022-09-16T07:14:09.762Z,2.33
2022-09-16T07:16:36.725Z,2.13
2022-09-16T07:19:04.381Z,1.50
2022-09-16T07:21:31.637Z,2.03
2022-09-16T07:24:00.777Z,1.40
2022-09-16T07:26:29.919Z,1.97
2022-09-16T07:28:59.789Z,2.60
2022-09-16T07:31:29.054Z,1.93
2022-09-16T07:34:01.289Z,1.87
2022-09-16T07:36:33.642Z,1.03
2022-09-16T07:39:00.480Z,1.40
2022-09-16T07:41:30.143Z,1.20
2022-09-16T07:43:59.261Z,1.00
2022-09-16T07:46:32.913Z,1.40
2022-09-16T07:49:01.564Z,1.67
2022-09-16T07:51:29.460Z,1.30
2022-09-16T07:54:02.274Z,1.60
2022-09-16T07:56:30.968Z,1.30
2022-09-16T07:58:57.831Z,1.30
2022-09-16T08:01:24.988Z,2.07
2022-09-16T08:03:52.366Z,1.70
2022-09-16T08:06:24.097Z,1.40
2022-09-16T08:08:55.703Z,1.10
2022-09-16T08:11:23.168Z,1.23
2022-09-16T08:13:50.308Z,1.03
2022-09-16T08:16:19.669Z,1.17
2022-09-16T08:18:49.817Z,0.93
2022-09-16T08:21:19.954Z,0.90
2022-09-16T08:23:47.159Z,1.20
2022-09-16T08:26:15.997Z,1.13
2022-09-16T08:28:57.453Z,0.93
2022-09-16T08:31:31.199Z,1.00
2022-09-16T08:33:57.973Z,0.97
2022-09-16T08:36:25.885Z,0.90
2022-09-16T08:38:55.811Z,1.00
2022-09-16T08:41:25.552Z,0.77
2022-09-16T08:44:29.423Z,1.10
2022-09-16T08:47:02.804Z,1.23
2022-09-16T08:49:43.910Z,0.67
2022-09-16T08:52:36.570Z,1.00
2022-09-16T08:55:09.965Z,0.80
2022-09-16T08:57:41.848Z,1.13
2022-09-16T09:00:15.909Z,1.70
2022-09-16T09:03:05.197Z,1.10
2022-09-16T09:05:47.133Z,1.50
2022-09-16T09:08:36.062Z,1.20
2022-09-16T09:11:25.441Z,1.30
2022-09-16T09:14:01.479Z,1.17
2022-09-16T09:16:28.212Z,1.07
2022-09-16T09:19:13.966Z,0.90
2022-09-16T09:21:58.956Z,1.17
2022-09-16T09:25:06.523Z,1.30
2022-09-16T09:27:41.872Z,1.20
2022-09-16T09:30:21.428Z,0.87
2022-09-16T09:33:44.870Z,1.00
2022-09-16T09:36:25.368Z,0.93
2022-09-16T09:39:17.186Z,0.60
2022-09-16T09:41:51.052Z,1.30
2022-09-16T09:44:32.668Z,0.80
2022-09-16T09:47:04.700Z,1.40
2022-09-16T09:49:41.137Z,1.30
2022-09-16T09:52:26.391Z,1.10
2022-09-16T09:54:54.162Z,1.67
2022-09-16T09:57:26.676Z,0.80
2022-09-16T10:00:14.461Z,1.00
2022-09-16T10:02:48.842Z,0.60
2022-09-16T10:05:24.253Z,1.07
2022-09-16T10:07:55.134Z,0.83
2022-09-16T10:10:25.020Z,0.60
2022-09-16T10:12:52.103Z,0.87
2022-09-16T10:15:37.475Z,0.80
2022-09-16T10:18:14.218Z,0.77
2022-09-16T10:20:44.655Z,0.90
2022-09-16T10:23:14.962Z,0.90
2022-09-16T10:25:42.940Z,0.77
2022-09-16T10:28:25.344Z,2.27
2022-09-16T10:30:55.088Z,1.20
2022-09-16T10:33:28.999Z,0.90
2022-09-16T10:36:02.731Z,0.77
2022-09-16T10:38:42.424Z,0.60
2022-09-16T10:41:19.707Z,0.83
2022-09-16T10:43:53.023Z,1.00
2022-09-16T10:46:20.108Z,0.70
2022-09-16T10:48:49.417Z,1.00
2022-09-16T10:51:26.400Z,0.83
2022-09-16T10:53:57.158Z,0.80
2022-09-16T10:56:29.432Z,0.80
2022-09-16T10:59:10.596Z,0.90
2022-09-16T11:01:57.085Z,0.70
2022-09-16T11:04:57.407Z,0.83
2022-09-16T11:07:31.766Z,0.60
2022-09-16T11:10:32.376Z,0.70
2022-09-16T11:13:17.677Z,0.80
2022-09-16T11:16:02.627Z,0.83
2022-09-16T11:18:55.928Z,0.80
2022-09-16T11:21:44.481Z,0.63
2022-09-16T11:24:24.284Z,0.97
2022-09-16T11:27:29.333Z,0.90
2022-09-16T11:30:14.397Z,1.73
2022-09-16T11:33:10.931Z,1.00
2022-09-16T11:36:26.355Z,0.70
2022-09-16T11:39:11.141Z,0.97
2022-09-16T11:41:56.507Z,0.60
2022-09-16T11:44:26.119Z,0.90
2022-09-16T11:47:30.679Z,1.10
2022-09-16T11:50:07.168Z,1.90
2022-09-16T11:52:36.701Z,0.87
2022-09-16T11:55:22.628Z,0.97
2022-09-16T11:57:58.868Z,0.80
2022-09-16T12:00:25.673Z,1.10
2022-09-16T12:03:05.453Z,1.20
2022-09-16T12:05:35.200Z,1.30
2022-09-16T12:08:12.926Z,0.83
2022-09-16T12:10:54.034Z,1.03
2022-09-16T12:13:25.972Z,0.67
2022-09-16T12:16:06.583Z,1.13
2022-09-16T12:18:39.280Z,0.90
2022-09-16T12:21:14.441Z,0.90
2022-09-16T12:23:45.820Z,0.93
2022-09-16T12:26:26.497Z,1.20
2022-09-16T12:29:03.503Z,0.80
2022-09-16T12:31:45.396Z,1.30
2022-09-16T12:34:20.641Z,0.90
2022-09-16T12:36:54.521Z,1.13
2022-09-16T12:39:21.247Z,1.20
2022-09-16T12:42:22.324Z,1.27
2022-09-16T12:45:24.417Z,1.20
2022-09-16T12:48:15.580Z,1.60
2022-09-16T12:51:08.730Z,1.20
2022-09-16T12:54:02.639Z,0.67
2022-09-16T12:56:50.988Z,1.30
2022-09-16T12:59:55.220Z,1.40
2022-09-16T13:02:28.276Z,1.20
2022-09-16T13:05:01.049Z,0.77
2022-09-16T13:07:35.429Z,1.43
2022-09-16T13:10:15.748Z,1.17
2022-09-16T13:12:49.513Z,1.20
2022-09-16T13:15:29.645Z,1.10
2022-09-16T13:18:09.033Z,1.20
2022-09-16T13:20:48.787Z,1.70
2022-09-16T13:23:23.751Z,1.60
2022-09-16T13:25:56.958Z,1.17
2022-09-16T13:28:33.268Z,0.90
2022-09-16T13:31:16.539Z,1.57
2022-09-16T13:33:56.900Z,1.80
2022-09-16T13:36:23.789Z,1.20
2022-09-16T13:38:53.223Z,2.27
2022-09-16T13:41:42.089Z,1.33
2022-09-16T13:44:33.810Z,1.37
2022-09-16T13:47:09.616Z,1.40
2022-09-16T13:49:51.710Z,1.53
2022-09-16T13:52:29.683Z,1.40
2022-09-16T13:55:10.984Z,1.60
2022-09-16T13:58:02.735Z,1.13
2022-09-16T14:00:58.567Z,1.53
2022-09-16T14:03:53.392Z,0.97
2022-09-16T14:06:29.556Z,1.90
2022-09-16T14:09:26.165Z,2.27
2022-09-16T14:12:15.427Z,2.23
2022-09-16T14:14:47.558Z,1.10
2022-09-16T14:17:19.358Z,1.30
2022-09-16T14:19:48.044Z,1.47
2022-09-16T14:22:17.479Z,1.40
2022-09-16T14:24:45.930Z,1.40
2022-09-16T14:27:43.632Z,1.07
2022-09-16T14:30:17.173Z,1.80
2022-09-16T14:32:46.100Z,1.33
2022-09-16T14:35:18.552Z,1.70
2022-09-16T14:37:47.869Z,1.40
2022-09-16T14:40:17.828Z,1.40
2022-09-16T14:42:53.414Z,1.20
2022-09-16T14:45:20.671Z,1.23
2022-09-16T14:47:52.909Z,1.70
2022-09-16T14:50:30.309Z,1.57
2022-09-16T14:53:02.628Z,1.30
2022-09-16T14:55:31.930Z,0.90
2022-09-16T14:57:59.717Z,1.70
2022-09-16T15:00:38.419Z,1.20
2022-09-16T15:03:14.787Z,1.63
2022-09-16T15:05:44.832Z,0.97
2022-09-16T15:08:27.513Z,1.33
2022-09-16T15:10:58.030Z,1.43
2022-09-16T15:13:28.518Z,1.30
2022-09-16T15:16:05.078Z,1.40
2022-09-16T15:18:37.487Z,1.60
2022-09-16T15:21:25.952Z,1.73
2022-09-16T15:23:56.064Z,1.73
2022-09-16T15:26:31.399Z,1.60
2022-09-16T15:29:04.450Z,1.50
2022-09-16T15:31:40.694Z,1.87
2022-09-16T15:34:21.651Z,2.20
2022-09-16T15:36:53.307Z,2.43
2022-09-16T15:39:39.691Z,1.57
2022-09-16T15:42:24.001Z,1.40
2022-09-16T15:44:52.635Z,1.47
2022-09-16T15:47:21.196Z,2.00
2022-09-16T15:50:15.518Z,1.70
2022-09-16T15:53:01.152Z,1.50
2022-09-16T15:55:52.583Z,1.70
2022-09-16T15:58:25.185Z,1.30
2022-09-16T16:01:23.907Z,1.63
2022-09-16T16:04:00.508Z,1.57
2022-09-16T16:06:54.329Z,1.33
2022-09-16T16:09:27.380Z,1.23
2022-09-16T16:11:55.968Z,1.93
2022-09-16T16:14:24.035Z,0.80
2022-09-16T16:17:12.160Z,1.20
2022-09-16T16:19:44.482Z,1.10
2022-09-16T16:22:12.290Z,1.03
2022-09-16T16:24:39.356Z,1.30
2022-09-16T16:27:06.864Z,1.30
2022-09-16T16:29:33.731Z,1.60
2022-09-16T16:32:09.697Z,1.23
2022-09-16T16:34:41.912Z,1.30
2022-09-16T16:37:19.165Z,1.43
2022-09-16T16:39:55.100Z,1.57
2022-09-16T16:42:23.080Z,1.00
2022-09-16T16:44:50.040Z,1.97
2022-09-16T16:47:17.096Z,1.33
2022-09-16T16:49:48.277Z,1.87
2022-09-16T16:52:18.084Z,1.40
2022-09-16T16:54:45.748Z,1.80
2022-09-16T16:57:12.664Z,1.70
2022-09-16T16:59:39.389Z,2.00
2022-09-16T17:02:06.335Z,2.07
2022-09-16T17:04:33.109Z,1.43
2022-09-16T17:07:23.995Z,1.90
2022-09-16T17:09:46.622Z,1.97
2022-09-16T17:12:13.364Z,2.40
2022-09-16T17:14:42.046Z,1.67
2022-09-16T17:17:08.751Z,1.23
2022-09-16T17:19:35.549Z,2.03
2022-09-16T17:22:02.333Z,1.73
2022-09-16T17:24:29.113Z,1.80
2022-09-16T17:26:55.873Z,1.90
2022-09-16T17:29:22.625Z,2.17
2022-09-16T17:31:49.312Z,1.97
2022-09-16T17:34:16.516Z,1.70
2022-09-16T17:36:45.559Z,1.80
2022-09-16T17:39:18.827Z,1.63
2022-09-16T17:41:48.616Z,1.93
2022-09-16T17:44:17.041Z,1.83
2022-09-16T17:46:44.621Z,2.67
2022-09-16T17:49:20.177Z,2.70
2022-09-16T17:51:47.392Z,2.42
2022-09-16T17:54:14.408Z,2.57
2022-09-16T17:56:42.837Z,2.50
2022-09-16T17:59:10.936Z,2.03
2022-09-16T18:01:37.743Z,2.30
2022-09-16T18:04:04.727Z,2.47
2022-09-16T18:06:35.853Z,2.10
2022-09-16T18:09:09.299Z,2.50
2022-09-16T18:11:39.445Z,2.60
2022-09-16T18:14:19.123Z,2.37
2022-09-16T18:16:52.375Z,2.40
2022-09-16T18:19:28.974Z,2.03
2022-09-16T18:21:55.811Z,1.83
2022-09-16T18:24:22.545Z,2.60
2022-09-16T18:26:49.443Z,2.27
2022-09-16T18:29:16.466Z,2.00
2022-09-16T18:31:48.126Z,2.70
2022-09-16T18:34:16.237Z,2.03
2022-09-16T18:36:43.090Z,2.03
2022-09-16T18:39:15.535Z,2.00
2022-09-16T18:41:44.829Z,1.83
2022-09-16T18:44:20.515Z,2.03
2022-09-16T18:46:47.847Z,1.83
2022-09-16T18:49:16.364Z,2.23
2022-09-16T18:51:51.733Z,1.67
2022-09-16T18:54:24.734Z,1.93
2022-09-16T18:56:52.728Z,2.20
2022-09-16T18:59:23.467Z,1.57
2022-09-16T19:01:52.989Z,2.07
2022-09-16T19:04:22.556Z,2.30
2022-09-16T19:06:51.599Z,2.77
2022-09-16T19:09:21.590Z,2.00
2022-09-16T19:11:49.556Z,1.50
2022-09-16T19:14:16.753Z,2.47
2022-09-16T19:16:45.227Z,2.47
2022-09-16T19:19:14.692Z,2.07
2022-09-16T19:21:42.277Z,1.77
2022-09-16T19:24:14.735Z,1.67
2022-09-16T19:26:43.051Z,2.10
2022-09-16T19:29:10.619Z,2.50
2022-09-16T19:31:39.181Z,2.17
2022-09-16T19:34:06.719Z,1.83
2022-09-16T19:36:34.953Z,1.67
2022-09-16T19:39:02.209Z,1.73
2022-09-16T19:41:31.475Z,1.30
2022-09-16T19:44:01.010Z,1.93
2022-09-16T19:46:29.838Z,1.70
2022-09-16T19:48:57.048Z,2.37
2022-09-16T19:51:25.456Z,1.57
2022-09-16T19:53:53.992Z,1.60
2022-09-16T19:56:29.020Z,1.80
2022-09-16T19:58:55.965Z,1.90
2022-09-16T20:01:25.571Z,1.87
2022-09-16T20:03:52.879Z,1.87
2022-09-16T20:06:25.324Z,2.20
2022-09-16T20:08:59.749Z,1.60
2022-09-16T20:11:29.173Z,1.63
2022-09-16T20:13:59.113Z,1.87
2022-09-16T20:16:35.825Z,1.40
2022-09-16T20:19:04.510Z,1.60
2022-09-16T20:21:33.118Z,1.63
2022-09-16T20:24:00.337Z,1.13
2022-09-16T20:26:27.832Z,1.50
2022-09-16T20:28:55.885Z,1.60
2022-09-16T20:31:25.735Z,1.60
2022-09-16T20:33:53.490Z,1.67
2022-09-16T20:36:22.712Z,1.20
2022-09-16T20:38:50.300Z,1.10
2022-09-16T20:41:20.384Z,1.10
2022-09-16T20:43:47.924Z,1.40
2022-09-16T20:46:23.129Z,1.20
2022-09-16T20:48:54.431Z,1.13
2022-09-16T20:51:23.733Z,1.17
2022-09-16T20:53:52.924Z,1.20
2022-09-16T20:56:19.956Z,1.10
2022-09-16T20:58:47.229Z,1.37
2022-09-16T21:01:16.730Z,1.50
2022-09-16T21:03:44.972Z,1.03
2022-09-16T21:06:17.153Z,1.70
2022-09-16T21:08:44.664Z,1.60
2022-09-16T21:11:19.561Z,1.30
2022-09-16T21:13:53.884Z,1.50
2022-09-16T21:16:22.067Z,3.70
2022-09-16T21:18:52.969Z,2.27
2022-09-16T21:21:20.840Z,2.10
2022-09-16T21:23:52.203Z,1.50
2022-09-16T21:26:31.232Z,1.50
2022-09-16T21:28:58.948Z,1.60
2022-09-16T21:31:28.266Z,1.27
2022-09-16T21:33:56.749Z,1.40
2022-09-16T21:36:25.034Z,2.03
2022-09-16T21:38:52.056Z,1.50
2022-09-16T21:41:21.299Z,2.07
2022-09-16T21:43:55.577Z,1.50
2022-09-16T21:46:28.137Z,1.67
2022-09-16T21:49:00.120Z,1.70
2022-09-16T21:51:28.234Z,1.60
2022-09-16T21:53:55.336Z,2.37
2022-09-16T21:56:23.417Z,2.30
2022-09-16T21:58:54.167Z,1.77
2022-09-16T22:01:23.486Z,2.13
2022-09-16T22:04:02.139Z,1.57
2022-09-16T22:06:29.468Z,1.57
2022-09-16T22:08:59.003Z,2.10
2022-09-16T22:11:27.563Z,1.87
2022-09-16T22:13:56.087Z,1.53
2022-09-16T22:16:31.202Z,1.73
2022-09-16T22:19:04.155Z,2.13
2022-09-16T22:21:33.471Z,1.83
2022-09-16T22:24:01.363Z,2.10
2022-09-16T22:26:29.571Z,2.07
2022-09-16T22:28:56.670Z,2.30
2022-09-16T22:31:29.198Z,1.97
2022-09-16T22:33:58.502Z,2.20
2022-09-16T22:36:27.424Z,2.50
2022-09-16T22:38:56.132Z,2.37
2022-09-16T22:41:25.084Z,2.00
2022-09-16T22:43:53.405Z,2.20
2022-09-16T22:46:26.706Z,2.40
2022-09-16T22:48:55.242Z,3.93
2022-09-16T22:51:22.076Z,4.30
2022-09-16T22:53:48.829Z,3.10
2022-09-16T22:56:21.060Z,2.20
2022-09-16T22:58:52.736Z,2.70
2022-09-16T23:01:23.500Z,2.03
2022-09-16T23:03:56.293Z,2.20
2022-09-16T23:06:24.709Z,2.30
2022-09-16T23:08:52.408Z,2.50
2022-09-16T23:11:22.142Z,2.70
2022-09-16T23:13:52.837Z,2.50
2022-09-16T23:16:23.101Z,2.03
2022-09-16T23:18:50.596Z,2.30
2022-09-16T23:21:20.867Z,1.97
2022-09-16T23:23:59.776Z,2.23
2022-09-16T23:26:29.851Z,2.57
2022-09-16T23:28:59.132Z,2.37
2022-09-16T23:31:28.655Z,2.27
2022-09-16T23:33:56.821Z,2.13
2022-09-16T23:36:25.761Z,2.00
2022-09-16T23:38:53.711Z,2.27
2022-09-16T23:41:22.916Z,1.90
2022-09-16T23:43:50.427Z,2.10
2022-09-16T23:46:19.520Z,2.23
2022-09-16T23:48:47.268Z,1.90
2022-09-16T23:51:14.141Z,1.80
2022-09-16T23:53:42.404Z,2.60
2022-09-16T23:56:11.790Z,3.83
2022-09-16T23:58:39.561Z,4.30
